Dallas, TX

5:01 PM CDT on June 03, 2015 (GMT -0500)
Deep Ellum | | Change Station
CLOSE
Current Station
Personal Weather Station
Location: Dallas, TX
Elevation: 489 ft
Nearby Weather Stations
Active Advisory: Flood Warning

Elev 489 ft 32.78 °N, 96.78 °W | Updated 15 seconds ago

Partly Cloudy
Partly Cloudy
88.9 °F
Feels Like 93 °F
N
11.2
Wind Variable Wind from SE
Gusts 12.3 mph

Today
High -- | Low -- °F
--% Chance of Precip.
Yesterday
High -- | Low -- °F
Precip. -- in
6:19 AM 8:31 PM
Full, 98% visible
Pressure 29.86 in
Visibility 10.0 miles
Clouds Scattered Clouds 5500 ft
Heat Index 93 °F
Dew Point 69 °F
Humidity 52%
Rainfall 0.00 in
Snow Depth Not available.
UV 3.0 out of 12
Pollen 6.00 out of 12
Air Quality Not available.
Flu Activity Local Activity
METAR KDAL 032153Z 14011KT 10SM SCT055 32/19 A2988 RMK AO2 SLP109 T03220189

More Conditions Fewer Conditions

Pressure 29.86 in
Visibility 10.0 miles
Clouds Scattered Clouds 5500 ft
Heat Index 93 °F
Dew Point 69 °F
Humidity 52%
Rainfall 0.00 in
Snow Depth Not available.
UV 3.0 out of 12
Pollen 6.00 out of 12
Air Quality Not available.
Flu Activity Local Activity
METAR KDAL 032153Z 14011KT 10SM SCT055 32/19 A2988 RMK AO2 SLP109 T03220189

More Conditions Fewer Conditions

10-Day Weather Forecast

×

Almanac

Astronomy

Jun. 03, 2015 Rise Set
Actual Time
Civil Twilight
Nautical Twilight
Astronomical Twilight
Moon
Length of Visible Light
Length of Day
Tomorrow will be .
, % of the Moon is Illuminated

Today's Extremes

State Highs State Lows

Community

WunderPhotos

Upload Photos

1,826,291 photos uploaded!

WunderBlogs® & News

Nearby

Air Quality

  Air Quality AQ Index Pollutant
Not available.

Snow Depth

Station Depth Elevation

Earthquake Activity

City Distance Mag. Time & Date
Minimum magnitude displayed is 2.5.

Coastal Water Temperatures

Place Temperature

Stations

Nearby Weather Stations

Station Location Temp. Windchill Dew Point Humidity Wind Precip. Elev Updated Type
                   
Flood Warning
Statement as of 9:36 AM CDT on June 03, 2015

The Flood Warning continues for
the Trinity River at Dallas.
* At 0900 am Wednesday the stage was 39.16 feet.
* Flood stage is 30 feet.
* Moderate flooding is occurring and moderate flooding is forecast.
* Forecast... the river will continue to fall to a stage near 39 feet
by Thursday morning.


Lat... Lon 3275 9693 3281 9693 3283 9683 3275 9671
      3269 9676 3278 9687




936 am CDT Wed Jun 3 2015

The Flood Warning continues for
the Elm Fork Trinity River near Carrollton.
* At 0915 am Wednesday the stage was 11.78 feet.
* Flood stage is 8 feet.
* Moderate flooding is occurring and moderate flooding is forecast.
* Forecast... the river will continue to fall to a stage near 11 feet
by Thursday morning.


Lat... Lon 3300 9700 3287 9699 3287 9687 3300 9688